Terminal Aerodrome Forecast
Issued by NWS

Home | Current Version | Previous Version | Text Only | Print | Product List | Glossary On
Versions: 1 2 3 4 5 6 7 8 9 10 11 12 13 14 15 16 17 18 19 20 21 22 23 24 25 26 27 28 29 30 31
000
FTPA31 PHFO 011100
TAFLIH
TAF
PHLI 011134Z 0112/0212 29006KT P6SM VCSH FEW020 SCT040
     FM012100 09009KT P6SM VCSH SCT025 BKN040
     FM020500 29006KT P6SM FEW020 BKN040=

USA.gov is the U.S. government's official web portal to all federal, state and local government web resources and services.